Time;durP1;ratioP1;P1;durP2;ratioP2;P2;SDS_P1;SDS_P2;PMS_P1;PMS_P2;Temp;Humidity;BMP_temperature;BMP_pressure;BME280_temperature;BME280_humidity;BME280_pressure;Samples;Min_cycle;Max_cycle;Signal;HPM_P1;HPM_P2
2024/01/13 00:00:01;;;;;;;52.28;19.15;;;;;;;-4.65;71.92;95693.69;5071758;28;20449;-87
2024/01/13 00:02:27;;;;;;;45.08;17.20;;;;;;;-4.87;71.35;95674.47;5073264;28;20412;-87
2024/01/13 00:04:52;;;;;;;49.60;19.05;;;;;;;-5.77;70.98;95528.31;5072220;28;20024;-87
2024/01/13 00:07:18;;;;;;;54.17;18.17;;;;;;;-5.54;71.74;95560.25;5072041;28;20064;-87
2024/01/13 00:09:43;;;;;;;50.53;18.00;;;;;;;-5.21;71.15;95617.84;5092168;28;20052;-87
2024/01/13 00:12:09;;;;;;;48.85;18.25;;;;;;;-6.05;70.78;95478.84;5084248;28;20035;-87
2024/01/13 00:14:34;;;;;;;48.22;14.77;;;;;;;-5.27;70.59;95590.06;5092267;28;20039;-87
2024/01/13 00:17:01;;;;;;;51.03;18.00;;;;;;;-6.33;71.32;95450.00;5064593;28;20125;-87
2024/01/13 00:19:27;;;;;;;43.90;16.42;;;;;;;-5.39;70.64;95563.75;5088158;28;20473;-86
2024/01/13 00:21:52;;;;;;;53.30;17.48;;;;;;;-6.98;70.65;95308.19;5078068;28;20043;-87
2024/01/13 00:24:18;;;;;;;41.97;15.40;;;;;;;-5.11;70.47;95631.41;5075350;28;20036;-86
2024/01/13 00:26:43;;;;;;;48.72;17.95;;;;;;;-5.47;70.71;95572.34;5090767;28;20099;-87
2024/01/13 00:29:11;;;;;;;54.28;17.42;;;;;;;-5.14;70.87;95629.94;5070663;28;20507;-87
2024/01/13 00:31:36;;;;;;;47.72;16.63;;;;;;;-5.16;69.63;95639.63;5092465;28;20481;-87
2024/01/13 00:34:02;;;;;;;45.55;15.13;;;;;;;-5.29;70.38;95589.44;5074868;28;20035;-87
2024/01/13 00:36:27;;;;;;;53.35;16.08;;;;;;;-4.70;69.92;95678.63;5092153;28;20043;-88
2024/01/13 00:38:53;;;;;;;45.20;15.07;;;;;;;-4.92;70.22;95627.63;5074519;28;20127;-87
2024/01/13 00:41:19;;;;;;;37.55;14.90;;;;;;;-5.20;69.26;95597.00;5092428;28;20043;-86
2024/01/13 00:43:44;;;;;;;42.05;15.18;;;;;;;-5.58;68.91;95517.63;5084370;28;20058;-88
2024/01/13 00:46:10;;;;;;;39.80;14.38;;;;;;;-4.74;69.69;95643.72;5074828;28;20726;-87
2024/01/13 00:48:36;;;;;;;41.58;14.85;;;;;;;-4.94;68.81;95627.78;5084510;28;20181;-87
2024/01/13 00:51:02;;;;;;;47.65;16.48;;;;;;;-6.41;68.97;95399.22;5091969;28;20364;-87
2024/01/13 00:53:28;;;;;;;48.70;16.88;;;;;;;-5.06;69.32;95605.84;5078875;28;20032;-86
2024/01/13 00:55:53;;;;;;;44.92;17.05;;;;;;;-5.27;69.84;95562.44;5074385;28;20035;-87
2024/01/13 00:58:19;;;;;;;45.58;14.65;;;;;;;-4.59;69.88;95667.13;5087233;28;20032;-87
2024/01/13 01:00:45;;;;;;;46.10;17.00;;;;;;;-4.80;69.40;95654.72;5077012;28;20064;-87
2024/01/13 01:03:10;;;;;;;47.65;17.10;;;;;;;-4.76;70.25;95661.19;5073447;28;20036;-87
2024/01/13 01:05:36;;;;;;;48.35;16.83;;;;;;;-4.62;69.44;95678.59;5081456;28;20119;-89
2024/01/13 01:08:01;;;;;;;45.30;17.08;;;;;;;-6.21;70.05;95455.63;5098217;28;20435;-87
2024/01/13 01:10:27;;;;;;;47.63;17.38;;;;;;;-5.00;70.21;95633.63;5085166;28;20050;-85
2024/01/13 01:12:52;;;;;;;46.28;17.20;;;;;;;-7.32;70.02;95272.28;5069044;28;20107;-87
2024/01/13 01:15:18;;;;;;;40.10;16.85;;;;;;;-6.62;70.56;95384.22;5077940;28;20035;-87
2024/01/13 01:17:43;;;;;;;43.88;16.13;;;;;;;-6.00;70.48;95461.06;5077884;28;20059;-87
2024/01/13 01:20:09;;;;;;;47.67;16.63;;;;;;;-5.08;70.39;95595.66;5089182;28;20510;-87
2024/01/13 01:22:35;;;;;;;38.05;15.18;;;;;;;-6.44;70.62;95389.22;5104549;28;20123;-87
2024/01/13 01:25:01;;;;;;;43.05;16.10;;;;;;;-4.83;71.06;95626.63;5110927;28;20086;-87
2024/01/13 01:27:26;;;;;;;46.92;16.30;;;;;;;-5.12;70.76;95572.91;5102122;28;20408;-87
2024/01/13 01:29:52;;;;;;;47.03;17.25;;;;;;;-5.13;70.97;95584.22;5096363;28;20077;-87
2024/01/13 01:32:18;;;;;;;37.50;14.57;;;;;;;-6.15;70.26;95404.16;5078006;28;20078;-87
2024/01/13 01:34:43;;;;;;;41.88;16.23;;;;;;;-5.66;70.56;95482.28;5108894;28;20080;-88
2024/01/13 01:37:09;;;;;;;42.15;17.13;;;;;;;-5.44;70.50;95535.03;5096082;28;20043;-86
2024/01/13 01:39:35;;;;;;;46.15;17.50;;;;;;;-6.31;70.35;95379.19;5077987;28;20055;-87
2024/01/13 01:42:00;;;;;;;52.53;18.55;;;;;;;-5.09;70.98;95567.38;5081871;28;20431;-86
2024/01/13 01:44:26;;;;;;;44.47;15.95;;;;;;;-6.81;70.24;95285.78;5098793;28;20032;-86
2024/01/13 01:46:53;;;;;;;50.60;17.40;;;;;;;-6.28;70.07;95368.53;5091865;28;20520;-86
2024/01/13 01:49:19;;;;;;;48.03;16.65;;;;;;;-5.68;70.59;95465.31;5085148;28;20042;-87
2024/01/13 01:51:45;;;;;;;49.00;18.02;;;;;;;-4.70;70.62;95619.13;5089104;28;20427;-86
2024/01/13 01:54:11;;;;;;;46.35;18.00;;;;;;;-6.40;70.57;95366.44;5077429;28;20834;-86
2024/01/13 01:56:38;;;;;;;44.45;16.92;;;;;;;-6.45;70.03;95330.81;5077326;28;20071;-88
2024/01/13 01:59:05;;;;;;;46.28;17.80;;;;;;;-4.53;70.26;95645.72;5101214;28;20039;-89
2024/01/13 02:01:31;;;;;;;47.58;17.45;;;;;;;-6.42;70.88;95340.03;5090772;28;20043;-89
2024/01/13 02:03:58;;;;;;;44.92;17.48;;;;;;;-4.93;70.91;95598.34;5094369;28;20028;-89
2024/01/13 02:06:24;;;;;;;45.65;17.10;;;;;;;-5.09;70.59;95578.53;5095493;28;20122;-91
2024/01/13 02:08:50;;;;;;;48.65;16.70;;;;;;;-5.84;70.44;95427.44;5088960;28;20123;-92
2024/01/13 02:11:16;;;;;;;46.20;17.70;;;;;;;-4.63;71.20;95630.41;5099154;28;20047;-91
2024/01/13 02:13:44;;;;;;;49.22;18.05;;;;;;;-4.56;71.14;95657.22;5110690;28;20087;-89
2024/01/13 02:16:10;;;;;;;56.42;16.85;;;;;;;-6.72;70.38;95332.03;5095426;28;20039;-91
2024/01/13 02:18:36;;;;;;;48.28;17.85;;;;;;;-5.93;70.99;95428.44;5097678;28;20495;-92
2024/01/13 02:21:02;;;;;;;40.90;15.85;;;;;;;-6.89;71.32;95280.63;5098379;28;20054;-89
2024/01/13 02:23:27;;;;;;;46.65;17.58;;;;;;;-5.00;70.65;95526.75;5106524;28;20032;-90
2024/01/13 02:25:53;;;;;;;52.67;16.98;;;;;;;-4.69;70.87;95548.28;5094025;28;20045;-90
2024/01/13 02:28:18;;;;;;;48.47;17.73;;;;;;;-5.41;70.33;95479.59;5110559;28;20036;-90
2024/01/13 02:30:44;;;;;;;42.78;16.63;;;;;;;-5.47;70.13;95444.88;5105063;28;20057;-91
2024/01/13 02:33:10;;;;;;;53.40;18.42;;;;;;;-5.91;70.08;95419.56;5099653;28;20036;-89
2024/01/13 02:35:35;;;;;;;52.85;17.80;;;;;;;-4.49;70.69;95616.75;5092188;28;20031;-91
2024/01/13 02:38:01;;;;;;;48.47;17.60;;;;;;;-4.61;71.31;95594.00;5092587;28;20016;-90
2024/01/13 02:40:27;;;;;;;49.00;18.38;;;;;;;-5.01;71.23;95538.06;5095128;28;20020;-91
2024/01/13 02:42:52;;;;;;;49.50;16.33;;;;;;;-5.76;71.33;95405.94;5111104;28;20048;-90
2024/01/13 02:45:18;;;;;;;48.10;20.08;;;;;;;-4.46;71.75;95618.19;5112371;28;20025;-89
2024/01/13 02:47:45;;;;;;;52.83;19.65;;;;;;;-4.47;72.10;95619.16;5110969;28;20028;-90
2024/01/13 02:50:13;;;;;;;49.42;16.98;;;;;;;-4.34;71.88;95607.28;5076493;28;20047;-90
2024/01/13 02:52:40;;;;;;;47.88;18.02;;;;;;;-4.85;71.39;95554.34;5094790;28;20024;-90
2024/01/13 02:55:06;;;;;;;48.70;17.15;;;;;;;-5.52;72.06;95458.31;5094017;28;20047;-89
2024/01/13 02:57:31;;;;;;;51.20;18.13;;;;;;;-4.41;71.60;95608.94;5109057;28;20020;-90
2024/01/13 02:59:57;;;;;;;51.40;18.48;;;;;;;-6.29;71.87;95297.22;5092476;28;20063;-89
2024/01/13 03:02:23;;;;;;;47.45;16.58;;;;;;;-6.53;71.11;95296.50;5098285;28;20058;-90
2024/01/13 03:04:48;;;;;;;50.00;18.10;;;;;;;-4.44;71.30;95604.13;5099677;28;20028;-90
2024/01/13 03:07:14;;;;;;;55.67;18.52;;;;;;;-4.46;71.08;95615.59;5100936;28;20052;-90
2024/01/13 03:09:39;;;;;;;49.47;17.83;;;;;;;-4.41;71.72;95634.00;5102794;28;20051;-86
2024/01/13 03:12:06;;;;;;;52.28;18.30;;;;;;;-4.90;71.03;95545.47;5098800;28;20311;-86
2024/01/13 03:14:31;;;;;;;54.03;17.42;;;;;;;-6.65;71.03;95299.44;5083871;28;20036;-86
2024/01/13 03:16:57;;;;;;;45.90;17.33;;;;;;;-6.08;70.93;95410.25;5100906;28;20396;-85
2024/01/13 03:19:22;;;;;;;44.08;15.98;;;;;;;-6.07;71.03;95386.06;5101124;28;20468;-85
2024/01/13 03:21:48;;;;;;;48.35;17.90;;;;;;;-6.20;70.79;95359.97;5098998;28;20065;-85
2024/01/13 03:24:13;;;;;;;56.80;18.65;;;;;;;-4.50;71.77;95642.81;5098831;28;20036;-86
2024/01/13 03:26:38;;;;;;;56.50;19.30;;;;;;;-4.62;71.66;95664.84;5081954;28;20060;-86
2024/01/13 03:29:04;;;;;;;50.40;17.48;;;;;;;-5.82;71.08;95455.69;5082418;28;20024;-86
2024/01/13 03:31:29;;;;;;;53.65;18.70;;;;;;;-5.74;70.97;95476.31;5084138;28;20093;-86
2024/01/13 03:33:55;;;;;;;49.45;17.42;;;;;;;-5.17;70.57;95582.91;5101186;28;20038;-85
2024/01/13 03:36:21;;;;;;;41.97;15.45;;;;;;;-4.86;70.79;95663.16;5100737;28;20403;-87
2024/01/13 03:38:46;;;;;;;43.08;16.40;;;;;;;-5.53;70.82;95542.00;5100418;28;20084;-86
2024/01/13 03:41:14;;;;;;;52.63;17.88;;;;;;;-5.22;70.86;95588.59;5080576;28;20452;-86
2024/01/13 03:43:40;;;;;;;43.28;17.52;;;;;;;-5.35;70.38;95533.22;5076274;28;20036;-86
2024/01/13 03:46:06;;;;;;;46.05;17.65;;;;;;;-4.79;70.83;95639.03;5066840;28;20039;-87
2024/01/13 03:48:32;;;;;;;44.30;16.48;;;;;;;-5.57;69.77;95522.59;5096100;28;20012;-86
2024/01/13 03:50:59;;;;;;;41.33;17.17;;;;;;;-4.91;69.97;95632.63;5092599;28;20536;-87
2024/01/13 03:53:25;;;;;;;48.45;18.83;;;;;;;-4.94;70.00;95607.06;5082330;28;20028;-87
2024/01/13 03:55:50;;;;;;;50.80;18.50;;;;;;;-4.79;69.85;95630.47;5099578;28;20452;-85
2024/01/13 03:58:16;;;;;;;45.72;17.17;;;;;;;-4.99;70.02;95642.19;5098908;28;20020;-86
2024/01/13 04:00:42;;;;;;;48.75;18.02;;;;;;;-5.58;70.12;95526.19;5102795;28;20036;-84
2024/01/13 04:03:07;;;;;;;42.45;16.85;;;;;;;-6.43;69.98;95387.44;5102167;28;20063;-86
2024/01/13 04:05:34;;;;;;;48.53;16.70;;;;;;;-5.85;70.30;95478.28;5084031;28;20510;-86
2024/01/13 04:07:59;;;;;;;56.60;18.08;;;;;;;-5.65;71.32;95521.84;5095328;28;20076;-87
2024/01/13 04:10:25;;;;;;;52.88;17.83;;;;;;;-5.22;70.78;95580.03;5080860;28;20458;-86
2024/01/13 04:12:50;;;;;;;45.00;16.73;;;;;;;-5.81;70.90;95509.75;5077957;28;20024;-87
2024/01/13 04:15:16;;;;;;;53.10;18.45;;;;;;;-5.07;71.44;95630.91;5079492;28;20040;-86
2024/01/13 04:17:42;;;;;;;50.90;18.38;;;;;;;-5.13;71.04;95631.56;5078440;28;20029;-86
2024/01/13 04:20:08;;;;;;;47.90;18.00;;;;;;;-5.82;70.60;95508.16;5085851;28;20133;-89
2024/01/13 04:22:33;;;;;;;46.97;17.73;;;;;;;-5.72;70.41;95526.06;5088927;28;20063;-90
2024/01/13 04:24:59;;;;;;;47.58;17.90;;;;;;;-5.41;71.10;95588.94;5082764;28;20412;-90
2024/01/13 04:27:24;;;;;;;53.08;18.88;;;;;;;-5.09;71.02;95639.78;5086399;28;20029;-90
2024/01/13 04:29:50;;;;;;;47.63;16.60;;;;;;;-5.93;70.31;95536.91;5088694;28;20020;-89
2024/01/13 04:32:15;;;;;;;47.17;15.98;;;;;;;-5.53;69.79;95629.84;5087100;28;20029;-91
2024/01/13 04:34:41;;;;;;;42.90;17.83;;;;;;;-5.75;71.07;95578.84;5085993;28;20040;-89
2024/01/13 04:37:06;;;;;;;46.53;18.75;;;;;;;-5.25;70.60;95645.78;5085641;28;20043;-91
2024/01/13 04:39:32;;;;;;;55.80;18.88;;;;;;;-6.67;70.95;95409.72;5131439;22;20086;-84
2024/01/13 04:41:57;;;;;;;48.65;17.55;;;;;;;-6.56;70.32;95433.56;5102466;28;20062;-84
2024/01/13 04:44:23;;;;;;;47.28;17.67;;;;;;;-4.96;70.96;95665.16;5110300;28;20038;-84
2024/01/13 04:46:48;;;;;;;54.10;18.58;;;;;;;-5.00;70.34;95663.84;5105183;28;20058;-84
2024/01/13 04:49:14;;;;;;;51.38;18.65;;;;;;;-5.60;70.55;95548.78;5108191;28;20047;-85
2024/01/13 04:51:40;;;;;;;54.03;18.27;;;;;;;-4.73;70.03;95656.47;5119620;28;20038;-84
2024/01/13 04:54:05;;;;;;;50.72;18.13;;;;;;;-4.92;70.01;95662.06;5123295;28;20459;-83
2024/01/13 04:56:31;;;;;;;53.67;18.67;;;;;;;-6.27;70.00;95470.81;5123096;28;20031;-83
2024/01/13 04:58:56;;;;;;;51.35;17.02;;;;;;;-5.83;70.78;95555.59;5115962;28;20103;-85
2024/01/13 05:01:23;;;;;;;38.72;15.27;;;;;;;-5.37;69.71;95612.72;5118923;28;20035;-84
2024/01/13 05:03:49;;;;;;;49.75;17.48;;;;;;;-5.40;69.90;95615.59;5112316;28;20100;-83
2024/01/13 05:06:15;;;;;;;45.65;16.35;;;;;;;-6.41;70.30;95445.66;5108591;28;20031;-84
2024/01/13 05:08:42;;;;;;;49.90;18.13;;;;;;;-5.15;70.92;95663.72;5099377;28;20027;-83
2024/01/13 05:11:08;;;;;;;44.70;16.67;;;;;;;-6.87;70.78;95361.22;5103972;28;20046;-83
2024/01/13 05:13:33;;;;;;;45.65;17.23;;;;;;;-5.11;71.04;95642.53;5105494;28;20353;-85
2024/01/13 05:15:59;;;;;;;47.30;16.75;;;;;;;-5.50;71.01;95600.31;5109034;28;20058;-84
2024/01/13 05:18:26;;;;;;;43.90;16.42;;;;;;;-5.10;71.64;95633.00;5113545;28;20066;-84
2024/01/13 05:20:52;;;;;;;51.70;16.40;;;;;;;-5.30;70.34;95585.22;5114067;28;20027;-84
2024/01/13 05:23:17;;;;;;;43.10;17.42;;;;;;;-5.19;69.96;95598.63;5088747;28;20035;-83
2024/01/13 05:25:43;;;;;;;45.83;15.27;;;;;;;-6.26;68.93;95415.63;5108287;28;20024;-84
2024/01/13 05:28:09;;;;;;;45.30;16.63;;;;;;;-5.40;68.32;95538.88;5133955;28;20040;-86
2024/01/13 05:30:35;;;;;;;47.85;17.17;;;;;;;-5.91;68.62;95491.09;5139893;28;20113;-87
2024/01/13 05:33:05;;;;;;;48.33;17.20;;;;;;;-7.96;68.77;95181.19;5119773;28;20091;-87
2024/01/13 05:35:30;;;;;;;41.78;15.10;;;;;;;-5.19;68.36;95597.81;5088781;22;20125;-78
2024/01/13 05:37:56;;;;;;;45.15;15.60;;;;;;;-5.18;69.21;95607.16;5038280;28;20077;-78
2024/01/13 05:40:22;;;;;;;50.45;16.48;;;;;;;-5.19;68.71;95588.28;5038220;28;20041;-77
2024/01/13 05:42:47;;;;;;;59.75;19.23;;;;;;;-4.97;68.77;95635.06;5052918;28;20040;-78
2024/01/13 05:45:13;;;;;;;51.13;18.02;;;;;;;-5.16;68.93;95618.16;5042888;28;20042;-77
2024/01/13 05:47:38;;;;;;;48.13;18.13;;;;;;;-5.12;68.68;95602.16;5048995;28;20040;-77
2024/01/13 05:50:04;;;;;;;46.17;17.15;;;;;;;-5.18;68.80;95592.44;5035802;28;20033;-77
2024/01/13 05:52:30;;;;;;;53.85;16.80;;;;;;;-4.81;68.77;95640.19;5052444;28;20497;-78
2024/01/13 05:54:56;;;;;;;40.35;17.08;;;;;;;-5.32;68.96;95559.53;5053068;28;20094;-78
2024/01/13 05:57:22;;;;;;;52.47;16.27;;;;;;;-4.78;68.91;95624.31;5054525;28;20428;-79
2024/01/13 05:59:48;;;;;;;50.03;17.55;;;;;;;-5.05;68.61;95604.88;5055206;28;20029;-78
2024/01/13 06:02:13;;;;;;;48.58;17.77;;;;;;;-4.94;68.51;95647.66;5054630;28;20111;-78
2024/01/13 06:04:39;;;;;;;40.90;15.88;;;;;;;-5.42;69.40;95587.38;5047484;28;20041;-78
2024/01/13 06:07:05;;;;;;;51.22;17.23;;;;;;;-5.18;68.91;95628.66;5039306;28;20043;-78
2024/01/13 06:09:32;;;;;;;44.30;17.27;;;;;;;-5.35;69.53;95609.00;5043845;28;20026;-78
2024/01/13 06:11:58;;;;;;;45.00;17.05;;;;;;;-5.54;69.75;95570.56;5063396;28;20048;-78
2024/01/13 06:14:24;;;;;;;43.88;17.42;;;;;;;-5.36;69.71;95627.25;5060146;28;20029;-79
2024/01/13 06:16:50;;;;;;;47.38;17.38;;;;;;;-5.12;69.77;95645.31;5053126;28;20048;-79
2024/01/13 06:19:15;;;;;;;61.13;20.15;;;;;;;-5.43;70.20;95601.25;5040264;28;20041;-78
2024/01/13 06:21:42;;;;;;;62.30;18.98;;;;;;;-5.29;70.12;95617.88;5028348;28;20034;-78
2024/01/13 06:24:14;;;;;;;57.42;19.63;;;;;;;-5.56;70.40;95575.09;5051296;28;20090;-78
2024/01/13 06:26:41;;;;;;;56.78;18.25;;;;;;;-5.47;69.79;95571.53;5034362;28;20075;-81
2024/01/13 06:29:07;;;;;;;48.75;19.20;;;;;;;-5.10;70.13;95599.38;5051924;28;20097;-78
2024/01/13 06:31:33;;;;;;;55.40;19.45;;;;;;;-4.86;69.85;95645.84;5032737;28;20025;-78
2024/01/13 06:33:58;;;;;;;58.08;19.48;;;;;;;-5.10;69.94;95604.53;5036122;28;20565;-79
2024/01/13 06:36:24;;;;;;;60.28;23.40;;;;;;;-4.81;69.45;95640.19;5049565;28;20041;-80
2024/01/13 06:38:49;;;;;;;48.03;18.05;;;;;;;-4.77;69.21;95647.44;5099184;22;20066;-79
2024/01/13 06:41:16;;;;;;;47.75;18.52;;;;;;;-5.18;69.41;95584.69;5100217;28;20130;-79
2024/01/13 06:43:42;;;;;;;51.83;18.63;;;;;;;-4.95;69.51;95605.47;5120083;27;20055;-79
2024/01/13 06:46:08;;;;;;;56.38;17.92;;;;;;;-5.02;69.12;95593.38;5101157;28;20124;-78
2024/01/13 06:48:33;;;;;;;46.53;18.35;;;;;;;-4.98;69.61;95610.19;5084745;28;20123;-78
2024/01/13 06:50:59;;;;;;;51.08;20.42;;;;;;;-4.82;68.80;95649.75;5101864;28;20032;-79
2024/01/13 06:53:24;;;;;;;45.17;17.33;;;;;;;-5.34;68.82;95594.28;5104963;28;20132;-79
2024/01/13 06:55:50;;;;;;;50.13;17.73;;;;;;;-4.86;68.59;95648.44;5096033;28;20051;-78
2024/01/13 06:58:16;;;;;;;47.55;17.85;;;;;;;-4.71;68.27;95658.91;5110760;28;20039;-78
2024/01/13 07:00:41;;;;;;;46.78;17.90;;;;;;;-4.93;68.74;95650.09;5094354;28;20588;-79
2024/01/13 07:03:07;;;;;;;46.55;16.95;;;;;;;-4.91;68.42;95631.81;5091490;28;20067;-79
2024/01/13 07:05:32;;;;;;;44.95;17.83;;;;;;;-4.71;68.50;95670.06;5109150;28;20123;-79
2024/01/13 07:08:00;;;;;;;48.92;17.88;;;;;;;-5.08;67.53;95634.44;5091805;28;20032;-79
2024/01/13 07:10:29;;;;;;;60.38;16.85;;;;;;;-5.33;68.08;95599.28;5103592;28;20027;-79
2024/01/13 07:12:55;;;;;;;44.38;17.92;;;;;;;-5.00;68.19;95664.66;5089910;28;20024;-78
2024/01/13 07:15:20;;;;;;;49.63;17.15;;;;;;;-4.86;69.08;95682.06;5097495;28;20027;-79
2024/01/13 07:17:46;;;;;;;49.95;18.92;;;;;;;-5.17;68.47;95624.28;5104801;28;20040;-78
2024/01/13 07:20:12;;;;;;;47.45;18.80;;;;;;;-5.54;68.05;95573.97;5101280;28;20088;-78
2024/01/13 07:22:38;;;;;;;47.63;17.33;;;;;;;-4.98;68.99;95665.31;5104207;28;20039;-78
2024/01/13 07:25:04;;;;;;;50.45;17.90;;;;;;;-5.01;68.27;95662.22;5092801;28;20079;-78
2024/01/13 07:27:30;;;;;;;47.35;17.10;;;;;;;-4.89;69.07;95700.53;5090712;28;20036;-79
2024/01/13 07:29:56;;;;;;;52.63;19.67;;;;;;;-4.99;69.64;95658.53;5092040;28;20040;-79
2024/01/13 07:32:22;;;;;;;49.92;19.48;;;;;;;-4.97;69.29;95648.00;5092670;28;20039;-79
2024/01/13 07:34:49;;;;;;;54.45;18.92;;;;;;;-4.73;70.05;95686.75;5109236;28;20058;-78
2024/01/13 07:37:14;;;;;;;48.08;17.88;;;;;;;-4.75;69.83;95684.31;5108539;28;20051;-78
2024/01/13 07:39:40;;;;;;;55.97;18.25;;;;;;;-4.80;70.28;95670.25;5109355;28;20059;-79
2024/01/13 07:42:05;;;;;;;59.47;20.13;;;;;;;-4.87;70.03;95641.66;5114305;27;20480;-78
2024/01/13 07:44:31;;;;;;;58.53;20.30;;;;;;;-4.79;70.11;95651.16;5111876;28;20096;-78
2024/01/13 07:47:01;;;;;;;47.10;17.45;;;;;;;-4.59;69.50;95687.81;5095944;28;20043;-78
2024/01/13 07:49:27;;;;;;;42.85;17.77;;;;;;;-6.71;69.90;95341.34;5101206;22;20148;-85
2024/01/13 07:51:54;;;;;;;51.90;18.63;;;;;;;-4.95;70.69;95618.41;5057532;28;20051;-87
2024/01/13 07:54:20;;;;;;;54.03;19.67;;;;;;;-5.06;70.20;95629.13;5076409;28;20056;-86
2024/01/13 07:56:49;;;;;;;46.35;17.48;;;;;;;-4.53;70.19;95676.78;5066705;28;20039;-87
2024/01/13 07:59:18;;;;;;;51.92;19.42;;;;;;;-4.80;70.67;95659.91;5059937;28;20032;-86
2024/01/13 08:01:45;;;;;;;46.97;18.58;;;;;;;-4.63;70.89;95674.41;5061593;28;20043;-86
2024/01/13 08:04:13;;;;;;;56.50;19.60;;;;;;;-5.07;70.00;95593.88;5050763;28;20027;-86
2024/01/13 08:06:39;;;;;;;53.72;17.92;;;;;;;-4.96;70.86;95609.06;5056135;28;20059;-87
2024/01/13 08:09:04;;;;;;;50.25;19.58;;;;;;;-4.98;69.79;95594.66;5056382;28;20045;-86
2024/01/13 08:11:30;;;;;;;46.55;17.48;;;;;;;-5.09;69.96;95585.47;5037091;28;20480;-87
2024/01/13 08:13:59;;;;;;;49.92;19.17;;;;;;;-4.69;69.97;95611.19;5048601;28;20032;-87
2024/01/13 08:16:25;;;;;;;59.38;19.88;;;;;;;-4.76;70.04;95602.50;5062306;28;20543;-86
2024/01/13 08:18:50;;;;;;;50.20;17.95;;;;;;;-5.71;69.83;95453.53;5061829;28;20045;-86
2024/01/13 08:21:16;;;;;;;50.17;18.20;;;;;;;-4.99;69.61;95555.06;5052137;28;20495;-87
2024/01/13 08:23:41;;;;;;;43.33;16.23;;;;;;;-4.18;69.13;95681.47;5040736;28;20157;-86
2024/01/13 08:26:07;;;;;;;49.45;16.40;;;;;;;-4.51;69.74;95630.84;5053585;28;20029;-86
2024/01/13 08:28:33;;;;;;;43.05;13.70;;;;;;;-4.80;68.66;95577.91;5049196;28;20037;-86
2024/01/13 08:30:58;;;;;;;40.58;15.35;;;;;;;-4.85;68.38;95587.16;5060818;28;20036;-86
2024/01/13 08:33:24;;;;;;;41.38;15.18;;;;;;;-5.84;68.97;95435.19;5059636;28;20595;-85
2024/01/13 08:35:49;;;;;;;42.88;15.73;;;;;;;-4.16;69.61;95686.50;5061244;28;20055;-87
2024/01/13 08:38:15;;;;;;;40.95;16.65;;;;;;;-4.75;69.22;95573.06;5073550;28;20066;-87
2024/01/13 08:40:41;;;;;;;40.58;16.30;;;;;;;-5.01;69.18;95530.31;5045530;28;20037;-87
2024/01/13 08:43:08;;;;;;;47.65;16.08;;;;;;;-4.67;69.45;95573.00;5071721;28;20061;-87
2024/01/13 08:45:34;;;;;;;40.13;15.82;;;;;;;-3.96;68.95;95670.34;5069199;28;20047;-88
2024/01/13 08:48:00;;;;;;;39.75;15.00;;;;;;;-4.00;68.80;95676.84;5054475;28;20093;-87
2024/01/13 08:50:26;;;;;;;36.08;13.38;;;;;;;-4.12;68.58;95605.66;5035082;28;20519;-87
2024/01/13 08:52:54;;;;;;;44.83;14.90;;;;;;;-3.78;68.46;95638.16;5070186;28;20482;-86
2024/01/13 08:55:27;;;;;;;32.15;13.82;;;;;;;-4.53;67.41;95491.22;5062390;28;20378;-87
2024/01/13 08:57:52;;;;;;;29.88;13.07;;;;;;;-3.56;66.85;95645.09;5056580;28;20032;-87
2024/01/13 09:00:19;;;;;;;38.50;13.93;;;;;;;-3.68;66.59;95626.56;5077916;28;20047;-90
2024/01/13 09:02:44;;;;;;;36.15;14.60;;;;;;;-3.63;67.53;95644.19;5086564;28;20037;-89
2024/01/13 09:05:11;;;;;;;36.28;13.77;;;;;;;-3.46;66.52;95673.38;5072564;28;20046;-89
2024/01/13 09:07:37;;;;;;;29.27;12.50;;;;;;;-4.68;65.90;95443.78;5081254;28;20127;-89
2024/01/13 09:10:04;;;;;;;37.42;13.68;;;;;;;-3.98;65.62;95563.50;5093732;28;20036;-89
2024/01/13 09:12:30;;;;;;;32.80;13.55;;;;;;;-3.44;66.01;95609.19;5075867;28;20035;-88
2024/01/13 09:14:55;;;;;;;38.42;12.82;;;;;;;-3.78;66.45;95537.06;5073780;28;20048;-90
2024/01/13 09:17:21;;;;;;;33.55;12.93;;;;;;;-3.27;66.45;95610.63;5072936;28;20063;-89
2024/01/13 09:19:47;;;;;;;32.88;13.32;;;;;;;-3.19;65.89;95628.72;5073810;22;20532;-79
2024/01/13 09:22:14;;;;;;;33.90;14.02;;;;;;;-3.71;65.92;95551.75;5072365;28;20036;-79
2024/01/13 09:24:41;;;;;;;33.47;13.52;;;;;;;-3.33;65.82;95588.00;5052514;28;20024;-79
2024/01/13 09:27:06;;;;;;;30.33;12.45;;;;;;;-3.51;65.85;95559.84;5068723;28;20555;-79
2024/01/13 09:29:32;;;;;;;36.13;14.07;;;;;;;-3.31;65.87;95592.03;5075490;28;20032;-80
2024/01/13 09:31:57;;;;;;;34.58;13.98;;;;;;;-3.21;66.27;95574.44;5074080;28;20039;-78
2024/01/13 09:34:24;;;;;;;30.33;12.68;;;;;;;-3.58;66.08;95509.66;5075550;28;20116;-79
2024/01/13 09:36:51;;;;;;;33.42;14.30;;;;;;;-3.09;65.59;95592.13;5093300;28;20031;-79
2024/01/13 09:39:16;;;;;;;39.10;13.60;;;;;;;-3.10;64.93;95578.34;5075553;28;20039;-79
2024/01/13 09:41:45;;;;;;;32.65;11.45;;;;;;;-3.07;65.18;95592.78;5076230;28;20041;-78
2024/01/13 09:44:27;;;;;;;33.28;13.48;;;;;;;-3.07;64.90;95572.00;5095535;28;20059;-78
2024/01/13 09:46:55;;;;;;;32.40;12.80;;;;;;;-3.00;65.61;95568.53;5076339;28;20110;-79
2024/01/13 09:49:23;;;;;;;35.40;12.73;;;;;;;-2.94;64.78;95588.56;5094933;28;20024;-78
2024/01/13 09:51:49;;;;;;;30.77;12.10;;;;;;;-2.91;64.11;95580.41;5076437;28;20028;-79
2024/01/13 09:54:26;;;;;;;26.17;10.98;;;;;;;-3.15;62.64;95585.88;5077381;28;20028;-78
2024/01/13 09:56:53;;;;;;;26.55;10.63;;;;;;;-3.36;63.11;95534.72;5088904;28;20428;-78
2024/01/13 09:59:22;;;;;;;38.75;12.88;;;;;;;-3.79;63.19;95461.13;5070167;28;20036;-78
2024/01/13 10:01:48;;;;;;;28.67;12.05;;;;;;;-3.15;62.69;95559.94;5061099;28;20040;-79
2024/01/13 10:04:14;;;;;;;23.98;10.10;;;;;;;-3.39;64.01;95526.47;5071296;28;20484;-78
2024/01/13 10:06:40;;;;;;;32.05;12.13;;;;;;;-3.92;62.72;95451.38;5075115;28;20043;-79
2024/01/13 10:09:07;;;;;;;31.70;11.43;;;;;;;-3.58;63.94;95470.75;5127786;22;20593;-85
2024/01/13 10:11:33;;;;;;;28.88;10.15;;;;;;;-3.73;64.00;95444.84;5089892;28;20028;-83
2024/01/13 10:14:03;;;;;;;27.77;11.57;;;;;;;-2.95;64.09;95534.22;5091812;28;20609;-85
2024/01/13 10:16:30;;;;;;;32.72;14.10;;;;;;;-2.81;64.58;95530.81;5085115;28;20465;-84
2024/01/13 10:19:06;;;;;;;38.85;12.77;;;;;;;-2.77;64.08;95529.47;5065503;28;20132;-83
2024/01/13 10:21:32;;;;;;;29.42;12.68;;;;;;;-3.89;64.07;95341.41;5075142;28;20171;-83
2024/01/13 10:24:00;;;;;;;25.40;11.73;;;;;;;-2.69;63.48;95490.41;5059770;28;20036;-83
2024/01/13 10:26:27;;;;;;;30.65;11.70;;;;;;;-2.41;62.21;95462.72;5066582;28;20440;-84
2024/01/13 10:28:54;;;;;;;33.17;11.95;;;;;;;-2.31;60.57;95453.81;5091544;28;20169;-84
2024/01/13 10:31:20;;;;;;;32.25;11.10;;;;;;;-2.00;60.49;95439.47;5092801;28;20133;-84
2024/01/13 10:33:47;;;;;;;21.35;10.23;;;;;;;-1.20;58.42;95508.38;5073578;28;20063;-83
2024/01/13 10:36:13;;;;;;;23.63;10.85;;;;;;;-0.77;57.95;95516.00;5083770;28;20029;-85
2024/01/13 10:38:42;;;;;;;35.13;11.27;;;;;;;-1.29;56.53;95419.25;5081770;28;20491;-84
2024/01/13 10:41:09;;;;;;;33.22;12.82;;;;;;;-0.52;56.20;95524.88;5075464;28;20123;-84
2024/01/13 10:43:40;;;;;;;30.90;11.50;;;;;;;-0.79;55.72;95431.06;5073780;28;20032;-84
2024/01/13 10:46:13;;;;;;;22.50;10.90;;;;;;;-0.64;55.18;95445.72;5072192;28;20044;-85
2024/01/13 10:48:45;;;;;;;25.88;9.85;;;;;;;-0.33;54.32;95518.94;5087850;28;20496;-85
2024/01/13 10:51:27;;;;;;;27.17;10.35;;;;;;;-1.07;56.17;95399.16;5056919;28;20025;-84
2024/01/13 10:53:54;;;;;;;23.05;9.48;;;;;;;-1.20;55.12;95314.00;5057014;28;20024;-84
2024/01/13 10:56:20;;;;;;;25.13;9.80;;;;;;;-0.17;55.04;95484.66;5055641;28;20032;-84
2024/01/13 10:58:46;;;;;;;21.38;10.40;;;;;;;-2.11;54.05;95207.91;5055802;28;20104;-84
2024/01/13 11:01:12;;;;;;;20.70;9.70;;;;;;;-0.84;55.94;95443.06;5055510;28;20132;-84
2024/01/13 11:03:44;;;;;;;24.88;10.60;;;;;;;-2.10;56.20;95295.28;5066065;28;20118;-84
2024/01/13 11:06:09;;;;;;;23.75;10.32;;;;;;;-1.49;56.56;95428.78;5082255;28;20075;-84
2024/01/13 11:08:36;;;;;;;29.52;11.45;;;;;;;-2.57;56.93;95273.41;5055745;28;20040;-84
2024/01/13 11:11:03;;;;;;;30.33;11.50;;;;;;;-1.73;56.92;95419.66;5089182;28;20039;-85